Felton, Minnesota
Current Conditions -  °F | °C
As of 2:53 AM on Sunday 23 Nov 2014 (Local Time) from KFAR Reporting Station
Haze Haze  
Wind Chill: 28°   Ceiling: 300
Heat Index: 33°   Visibility: 3mi
Dew Point: 31°   Wind: 6mph
Humidity: 92%   Direction: 200°SSW
Pressure: 29.39"   Gusts: NA
Location:  47.08°N, 96.51°W
Report Text: KFAR 230853Z 20005KT 3SM BR OVC003 01/M01 A2939 RMK AO2 SLP960 T00061006 53004
Loading
Personal Weather Stations






























Interactive Weather Map New forecast layout! Learn more

10-Day Weather Forecast

Advertisements
Track Severe Weather on mobile